Time;durP1;ratioP1;P1;durP2;ratioP2;P2;SDS_P1;SDS_P2;PMS_P1;PMS_P2;Temp;Humidity;BMP_temperature;BMP_pressure;BME280_temperature;BME280_humidity;BME280_pressure;Samples;Min_cycle;Max_cycle;Signal;HPM_P1;HPM_P2
2024/03/25 00:00:34;;;;;;;31.02;5.50;;;;;;;4.84;100.00;100487.00;5028971;28;20112;-73
2024/03/25 00:02:59;;;;;;;25.20;5.30;;;;;;;4.94;100.00;100488.81;5028071;28;20037;-73
2024/03/25 00:05:25;;;;;;;17.77;4.63;;;;;;;4.95;100.00;100493.81;5027621;28;20031;-73
2024/03/25 00:07:51;;;;;;;26.83;4.35;;;;;;;4.93;100.00;100485.41;5033181;28;20033;-74
2024/03/25 00:10:20;;;;;;;20.15;3.75;;;;;;;4.94;100.00;100497.34;5025998;28;20064;-73
2024/03/25 00:12:46;;;;;;;28.40;5.18;;;;;;;4.90;100.00;100498.53;5025191;28;20033;-73
2024/03/25 00:15:11;;;;;;;29.25;6.70;;;;;;;4.83;100.00;100492.28;5026402;28;20033;-73
2024/03/25 00:17:37;;;;;;;23.45;4.68;;;;;;;4.87;100.00;100491.88;5025374;28;20041;-75
2024/03/25 00:20:05;;;;;;;24.52;6.53;;;;;;;4.92;100.00;100483.00;5026285;28;20546;-73
2024/03/25 00:22:31;;;;;;;26.05;6.45;;;;;;;4.92;100.00;100483.81;5051998;28;20049;-75
2024/03/25 00:24:56;;;;;;;23.85;5.78;;;;;;;5.03;100.00;100483.72;5030611;28;20496;-74
2024/03/25 00:27:22;;;;;;;32.95;6.10;;;;;;;4.95;100.00;100480.16;5028220;28;20191;-73
2024/03/25 00:29:48;;;;;;;29.75;6.43;;;;;;;4.91;100.00;100484.75;5025075;28;20037;-74
2024/03/25 00:32:14;;;;;;;24.25;6.32;;;;;;;4.85;100.00;100490.38;5028943;28;20041;-74
2024/03/25 00:34:40;;;;;;;27.33;5.97;;;;;;;4.87;100.00;100478.22;5025292;28;20631;-74
2024/03/25 00:37:05;;;;;;;30.60;6.75;;;;;;;4.81;100.00;100476.16;5022455;28;20040;-74
2024/03/25 00:39:32;;;;;;;32.85;7.57;;;;;;;4.87;100.00;100479.03;5024193;28;20036;-74
2024/03/25 00:41:58;;;;;;;25.65;5.93;;;;;;;4.77;100.00;100478.19;5021897;28;20037;-74
2024/03/25 00:44:24;;;;;;;27.65;6.47;;;;;;;4.78;100.00;100481.56;5024681;28;20033;-74
2024/03/25 00:46:50;;;;;;;23.30;5.97;;;;;;;4.78;100.00;100482.34;5026177;28;20098;-74
2024/03/25 00:49:15;;;;;;;25.23;6.88;;;;;;;4.67;100.00;100475.56;5022685;28;20044;-73
2024/03/25 00:51:41;;;;;;;37.45;6.13;;;;;;;4.73;100.00;100476.81;5022628;28;21162;-73
2024/03/25 00:54:07;;;;;;;29.98;6.57;;;;;;;4.68;100.00;100478.94;5023466;28;20033;-74
2024/03/25 00:56:32;;;;;;;27.08;6.28;;;;;;;4.73;100.00;100476.81;5024151;28;20038;-73
2024/03/25 00:59:02;;;;;;;29.73;7.05;;;;;;;4.66;100.00;100476.47;5023797;28;20448;-74
2024/03/25 01:01:31;;;;;;;29.52;5.97;;;;;;;4.65;100.00;100471.47;5024117;28;20041;-73
2024/03/25 01:03:57;;;;;;;22.33;5.57;;;;;;;4.52;100.00;100470.84;5028330;28;20037;-73
2024/03/25 01:06:23;;;;;;;27.45;5.90;;;;;;;4.52;100.00;100475.97;5024693;28;20072;-73
2024/03/25 01:08:49;;;;;;;23.05;5.50;;;;;;;4.52;100.00;100475.97;5026329;28;22176;-73
2024/03/25 01:11:15;;;;;;;29.98;6.97;;;;;;;4.46;100.00;100477.28;5053953;28;20029;-73
2024/03/25 01:13:41;;;;;;;27.65;5.57;;;;;;;4.43;100.00;100480.13;5019743;28;20557;-73
2024/03/25 01:16:07;;;;;;;26.02;5.25;;;;;;;4.37;100.00;100483.16;5023800;28;20095;-73
2024/03/25 01:18:33;;;;;;;25.67;5.60;;;;;;;4.36;100.00;100482.34;5050501;28;20037;-73
2024/03/25 01:20:59;;;;;;;20.00;5.40;;;;;;;4.29;100.00;100482.03;5030125;28;20029;-73
2024/03/25 01:23:24;;;;;;;19.10;4.93;;;;;;;4.23;100.00;100481.69;5027800;28;20026;-73
2024/03/25 01:25:50;;;;;;;29.60;5.10;;;;;;;4.22;100.00;100480.06;5022354;28;20170;-73
2024/03/25 01:28:16;;;;;;;20.35;5.50;;;;;;;4.14;100.00;100485.00;5025185;28;20388;-73
2024/03/25 01:30:41;;;;;;;26.80;5.53;;;;;;;4.14;100.00;100490.94;5029135;28;20412;-73
2024/03/25 01:33:06;;;;;;;23.45;5.55;;;;;;;4.16;100.00;100498.53;5026794;28;20119;-73
2024/03/25 01:35:32;;;;;;;25.38;6.63;;;;;;;4.21;100.00;100481.81;5020082;28;20030;-73
2024/03/25 01:37:57;;;;;;;31.38;6.20;;;;;;;4.16;100.00;100483.13;5030304;28;20131;-73
2024/03/25 01:40:23;;;;;;;34.40;5.43;;;;;;;4.17;100.00;100484.75;5021884;28;20507;-73
2024/03/25 01:42:59;;;;;;;29.63;6.05;;;;;;;4.21;100.00;100484.38;5039840;28;20038;-72
2024/03/25 01:45:28;;;;;;;29.30;6.93;;;;;;;4.24;100.00;100493.63;5027111;28;20029;-73
2024/03/25 01:47:55;;;;;;;29.30;5.85;;;;;;;4.16;100.00;100493.38;5024152;28;20480;-73
2024/03/25 01:50:21;;;;;;;26.23;6.15;;;;;;;4.06;100.00;100490.75;5024316;28;20672;-73
2024/03/25 01:52:47;;;;;;;32.22;5.80;;;;;;;4.12;100.00;100481.75;5024575;28;20112;-73
2024/03/25 01:55:18;;;;;;;27.38;5.90;;;;;;;4.15;100.00;100481.50;5025383;28;20017;-73
2024/03/25 01:57:45;;;;;;;35.92;5.97;;;;;;;4.10;100.00;100482.66;5028791;28;20037;-73
2024/03/25 02:00:10;;;;;;;33.58;5.45;;;;;;;4.19;100.00;100480.31;5023990;28;20507;-73
2024/03/25 02:02:45;;;;;;;21.13;5.70;;;;;;;4.06;100.00;100488.16;5023865;28;20037;-73
2024/03/25 02:05:11;;;;;;;34.72;5.75;;;;;;;4.02;100.00;100490.16;5053404;28;20048;-73
2024/03/25 02:07:37;;;;;;;24.83;5.18;;;;;;;4.04;100.00;100493.41;5024214;28;20041;-72
2024/03/25 02:10:07;;;;;;;28.00;5.35;;;;;;;3.94;100.00;100492.53;5023425;28;20045;-73
2024/03/25 02:12:33;;;;;;;25.58;5.20;;;;;;;3.96;100.00;100492.41;5020984;28;20057;-73
2024/03/25 02:14:59;;;;;;;33.53;5.80;;;;;;;3.86;100.00;100495.69;5042837;28;20025;-73
2024/03/25 02:17:24;;;;;;;21.45;5.47;;;;;;;3.83;100.00;100497.69;5022614;28;20051;-73
2024/03/25 02:19:50;;;;;;;27.83;7.55;;;;;;;3.86;100.00;100497.41;5027591;28;20110;-73
2024/03/25 02:22:16;;;;;;;30.25;7.13;;;;;;;3.90;100.00;100497.09;5025877;28;20068;-73
2024/03/25 02:24:43;;;;;;;33.38;5.20;;;;;;;3.87;100.00;100494.75;5024733;28;20084;-73
2024/03/25 02:27:14;;;;;;;27.67;5.00;;;;;;;3.94;100.00;100486.56;5022565;28;20265;-73
2024/03/25 02:29:40;;;;;;;23.30;4.63;;;;;;;3.84;100.00;100494.16;5025169;28;20040;-73
2024/03/25 02:32:06;;;;;;;30.27;5.95;;;;;;;3.86;100.00;100492.28;5023345;28;20065;-73
2024/03/25 02:34:31;;;;;;;33.92;5.45;;;;;;;3.85;100.00;100491.47;5025259;28;20121;-73
2024/03/25 02:36:57;;;;;;;27.75;5.25;;;;;;;3.78;100.00;100492.09;5027609;28;20380;-72
2024/03/25 02:39:24;;;;;;;22.80;5.32;;;;;;;3.81;100.00;100497.00;5035435;28;20396;-73
2024/03/25 02:41:50;;;;;;;30.63;4.90;;;;;;;3.83;100.00;100492.56;5026353;28;20033;-73
2024/03/25 02:44:16;;;;;;;32.00;5.15;;;;;;;3.68;100.00;100492.00;5025923;28;20042;-73
2024/03/25 02:46:42;;;;;;;31.55;6.38;;;;;;;3.61;100.00;100486.50;5028994;28;20415;-72
2024/03/25 02:49:07;;;;;;;31.38;4.88;;;;;;;3.60;100.00;100492.59;5010171;28;20038;-73
2024/03/25 02:51:33;;;;;;;31.00;5.32;;;;;;;3.65;100.00;100490.47;5024570;28;20488;-73
2024/03/25 02:53:58;;;;;;;23.40;5.50;;;;;;;3.63;100.00;100494.88;5025431;28;20562;-73
2024/03/25 02:56:23;;;;;;;25.73;5.20;;;;;;;3.64;100.00;100496.53;5026610;28;20029;-73
2024/03/25 02:58:49;;;;;;;20.85;5.30;;;;;;;3.58;100.00;100484.19;5026133;28;20044;-72
2024/03/25 03:01:16;;;;;;;25.27;6.15;;;;;;;3.58;100.00;100493.63;5022738;28;20028;-72
2024/03/25 03:03:41;;;;;;;27.35;4.60;;;;;;;3.62;100.00;100490.72;5021939;28;20034;-73
2024/03/25 03:06:08;;;;;;;25.45;5.50;;;;;;;3.55;100.00;100486.97;5024513;28;20038;-73
2024/03/25 03:08:34;;;;;;;29.38;6.00;;;;;;;3.56;100.00;100485.22;5020370;28;20120;-73
2024/03/25 03:10:59;;;;;;;22.15;4.53;;;;;;;3.51;100.00;100476.16;5024707;28;20112;-73
2024/03/25 03:13:24;;;;;;;25.90;6.30;;;;;;;3.45;100.00;100480.94;5030794;28;20084;-73
2024/03/25 03:15:50;;;;;;;17.88;4.38;;;;;;;3.43;100.00;100470.81;5032839;28;20021;-73
2024/03/25 03:18:15;;;;;;;30.73;5.32;;;;;;;3.43;100.00;100470.81;5028235;28;20036;-73
2024/03/25 03:20:41;;;;;;;25.67;5.90;;;;;;;3.42;100.00;100476.03;5027599;28;20504;-73
2024/03/25 03:23:06;;;;;;;20.83;5.15;;;;;;;3.41;100.00;100472.66;5039586;28;20037;-73
2024/03/25 03:25:32;;;;;;;14.27;4.28;;;;;;;3.41;100.00;100464.16;5031663;28;20044;-73
2024/03/25 03:27:57;;;;;;;32.35;5.28;;;;;;;3.46;100.00;100456.91;5032405;28;20045;-74
2024/03/25 03:30:23;;;;;;;20.20;5.93;;;;;;;3.42;100.00;100468.34;5027948;28;20030;-73
2024/03/25 03:32:48;;;;;;;22.23;5.35;;;;;;;3.40;100.00;100471.03;5028268;28;20688;-73
2024/03/25 03:35:13;;;;;;;19.88;4.57;;;;;;;3.34;100.00;100471.50;5029145;28;20036;-73
2024/03/25 03:37:39;;;;;;;18.17;4.65;;;;;;;3.30;100.00;100467.56;5026799;28;20042;-73
2024/03/25 03:40:08;;;;;;;26.02;4.75;;;;;;;3.30;100.00;100470.91;5014486;28;20052;-73
2024/03/25 03:42:33;;;;;;;21.70;4.90;;;;;;;3.25;100.00;100469.63;5026372;28;20114;-73
2024/03/25 03:44:59;;;;;;;22.70;5.05;;;;;;;3.24;100.00;100468.00;5028088;28;20106;-74
2024/03/25 03:47:24;;;;;;;24.25;5.53;;;;;;;3.23;100.00;100469.75;5025706;28;20408;-73
2024/03/25 03:49:50;;;;;;;27.75;6.22;;;;;;;3.18;100.00;100469.28;5026973;28;20037;-73
2024/03/25 03:52:15;;;;;;;21.60;4.45;;;;;;;3.17;100.00;100466.84;5024698;28;20088;-73
2024/03/25 03:54:40;;;;;;;16.92;5.13;;;;;;;3.14;100.00;100469.63;5042120;28;20025;-74
2024/03/25 03:57:06;;;;;;;16.67;4.30;;;;;;;3.11;100.00;100465.56;5026253;28;20037;-73
2024/03/25 03:59:31;;;;;;;21.83;4.57;;;;;;;3.09;100.00;100470.00;5029546;28;20040;-73
2024/03/25 04:01:57;;;;;;;18.67;4.53;;;;;;;3.05;100.00;100478.81;5027346;28;20532;-73
2024/03/25 04:04:23;;;;;;;21.90;4.85;;;;;;;3.04;100.00;100477.19;5025211;28;20051;-73
2024/03/25 04:06:48;;;;;;;22.40;6.15;;;;;;;2.99;100.00;100476.72;5029504;28;20045;-73
2024/03/25 04:09:14;;;;;;;18.55;5.85;;;;;;;2.97;100.00;100478.59;5028528;28;20037;-73
2024/03/25 04:11:39;;;;;;;22.90;5.70;;;;;;;2.94;100.00;100479.63;5025494;28;20033;-73
2024/03/25 04:14:05;;;;;;;26.42;5.13;;;;;;;2.92;100.00;100477.19;5027156;28;20033;-73
2024/03/25 04:16:31;;;;;;;20.55;4.63;;;;;;;2.89;100.00;100477.41;5027731;28;20076;-73
2024/03/25 04:18:57;;;;;;;23.40;5.20;;;;;;;2.85;100.00;100467.50;5025376;28;20041;-73
2024/03/25 04:21:23;;;;;;;20.10;5.35;;;;;;;2.83;100.00;100471.94;5027751;28;20022;-73
2024/03/25 04:23:49;;;;;;;20.33;5.57;;;;;;;2.80;100.00;100474.72;5025281;28;20057;-73
2024/03/25 04:26:15;;;;;;;18.85;5.25;;;;;;;2.80;100.00;100478.09;5022909;28;20096;-73
2024/03/25 04:28:40;;;;;;;17.48;4.95;;;;;;;2.73;100.00;100472.63;5027603;28;20053;-73
2024/03/25 04:31:07;;;;;;;21.23;6.75;;;;;;;2.73;100.00;100479.47;5028150;28;20040;-73
2024/03/25 04:33:33;;;;;;;24.48;5.82;;;;;;;2.71;100.00;100479.59;5026853;28;20041;-73
2024/03/25 04:35:58;;;;;;;20.92;5.40;;;;;;;2.73;100.00;100482.03;5026314;28;20038;-73
2024/03/25 04:38:24;;;;;;;20.42;5.63;;;;;;;2.67;100.00;100477.34;5029447;28;20100;-73
2024/03/25 04:40:50;;;;;;;25.83;6.45;;;;;;;2.71;100.00;100479.59;5028102;28;20041;-73
2024/03/25 04:43:15;;;;;;;25.83;6.88;;;;;;;2.65;100.00;100476.66;5026312;28;20056;-74
2024/03/25 04:45:41;;;;;;;22.20;6.50;;;;;;;2.65;100.00;100477.47;5028738;28;20026;-73
2024/03/25 04:48:07;;;;;;;22.55;6.70;;;;;;;2.65;100.00;100481.78;5023440;28;20563;-73
2024/03/25 04:50:33;;;;;;;18.50;7.40;;;;;;;2.60;100.00;100482.13;5028819;28;20021;-73
2024/03/25 04:52:58;;;;;;;27.25;6.00;;;;;;;2.58;100.00;100478.88;5020041;28;20041;-73
2024/03/25 04:55:24;;;;;;;23.20;7.25;;;;;;;2.57;100.00;100484.91;5026593;28;20033;-73
2024/03/25 04:57:49;;;;;;;26.88;7.00;;;;;;;2.60;100.00;100487.25;5041198;28;20041;-73
2024/03/25 05:00:15;;;;;;;21.25;6.25;;;;;;;2.53;100.00;100481.75;5023807;28;20037;-73
2024/03/25 05:02:41;;;;;;;22.23;5.93;;;;;;;2.53;100.00;100483.50;5021719;28;20038;-73
2024/03/25 05:05:07;;;;;;;32.30;7.25;;;;;;;2.57;100.00;100478.97;5022708;28;20421;-73
2024/03/25 05:07:33;;;;;;;26.73;7.25;;;;;;;2.56;100.00;100475.56;5021374;28;20508;-74
2024/03/25 05:09:59;;;;;;;37.83;7.78;;;;;;;2.53;100.00;100479.19;5024513;28;20466;-74
2024/03/25 05:12:27;;;;;;;27.52;7.07;;;;;;;2.46;100.00;100478.00;5029074;28;20037;-73
2024/03/25 05:14:52;;;;;;;26.50;6.90;;;;;;;2.45;100.00;100481.50;5027269;28;20017;-73
2024/03/25 05:17:18;;;;;;;26.02;7.20;;;;;;;2.46;100.00;100480.56;5021906;28;20032;-72
2024/03/25 05:19:43;;;;;;;31.35;6.90;;;;;;;2.41;100.00;100477.53;5022131;28;20492;-73
2024/03/25 05:22:08;;;;;;;29.92;7.10;;;;;;;2.38;100.00;100482.84;5025260;28;20100;-72
2024/03/25 05:24:34;;;;;;;15.90;6.15;;;;;;;2.34;100.00;100478.91;5023993;28;20041;-73
2024/03/25 05:27:00;;;;;;;21.73;6.72;;;;;;;2.31;100.00;100484.22;5023322;28;20033;-73
2024/03/25 05:29:26;;;;;;;26.30;7.00;;;;;;;2.30;100.00;100478.28;5023620;28;20547;-73
2024/03/25 05:32:01;;;;;;;26.33;7.78;;;;;;;2.31;100.00;100482.47;5024428;28;20029;-72
2024/03/25 05:34:28;;;;;;;25.20;6.70;;;;;;;2.33;100.00;100482.38;5022119;28;20037;-73
2024/03/25 05:36:54;;;;;;;22.35;6.32;;;;;;;2.29;100.00;100489.44;5024089;28;20117;-73
2024/03/25 05:39:20;;;;;;;20.58;7.10;;;;;;;2.26;100.00;100486.28;5024705;28;20121;-73
2024/03/25 05:41:46;;;;;;;27.10;7.50;;;;;;;2.26;100.00;100488.84;5011512;28;20428;-73
2024/03/25 05:44:12;;;;;;;22.17;7.60;;;;;;;2.24;100.00;100499.22;5022509;28;20072;-74
2024/03/25 05:46:38;;;;;;;20.92;7.68;;;;;;;2.22;100.00;100498.47;5027436;28;20075;-73
2024/03/25 05:49:04;;;;;;;21.08;6.65;;;;;;;2.22;100.00;100492.56;5022630;28;20488;-73
2024/03/25 05:51:30;;;;;;;30.23;8.48;;;;;;;2.20;100.00;100487.53;5025338;28;20033;-74
2024/03/25 05:53:56;;;;;;;21.15;8.55;;;;;;;2.20;100.00;100497.78;5026193;28;20056;-73
2024/03/25 05:56:21;;;;;;;23.52;8.50;;;;;;;2.20;100.00;100502.88;5024693;28;20033;-74
2024/03/25 05:58:47;;;;;;;40.95;12.25;;;;;;;2.20;100.00;100496.97;5020504;28;20044;-74
2024/03/25 06:01:13;;;;;;;44.92;20.95;;;;;;;2.21;100.00;100496.06;5024064;28;20030;-73
2024/03/25 06:03:38;;;;;;;25.33;10.70;;;;;;;2.26;100.00;100501.63;5021043;28;20553;-73
2024/03/25 06:06:04;;;;;;;32.38;12.82;;;;;;;2.25;100.00;100498.28;5022130;28;20029;-73
2024/03/25 06:08:30;;;;;;;46.42;20.40;;;;;;;2.26;100.00;100505.03;5020915;28;20037;-73
2024/03/25 06:11:00;;;;;;;44.50;22.92;;;;;;;2.31;100.00;100502.13;5022814;28;20427;-72
2024/03/25 06:13:26;;;;;;;48.85;20.58;;;;;;;2.33;100.00;100497.72;5032411;28;20057;-73
2024/03/25 06:15:51;;;;;;;60.78;21.45;;;;;;;2.35;100.00;100495.88;5025419;28;20163;-72
2024/03/25 06:18:17;;;;;;;42.67;16.30;;;;;;;2.43;100.00;100490.19;5025321;28;20056;-74
2024/03/25 06:20:42;;;;;;;53.90;20.85;;;;;;;2.47;100.00;100496.75;4988651;28;1069297;-72
2024/03/25 06:23:08;;;;;;;98.72;48.80;;;;;;;2.56;100.00;100493.50;5023601;28;20037;-73
2024/03/25 06:25:35;;;;;;;70.85;33.05;;;;;;;2.63;100.00;100491.31;5026858;28;20083;-73
2024/03/25 06:28:02;;;;;;;72.40;29.55;;;;;;;2.71;100.00;100492.41;5023107;28;20034;-73
2024/03/25 06:35:56;;;;;;;42.13;17.33;;;;;;;2.97;100.00;100487.06;5026579;28;20036;-73
2024/03/25 06:38:21;;;;;;;44.47;13.43;;;;;;;3.09;100.00;100482.81;5023546;28;20037;-73
2024/03/25 06:40:47;;;;;;;34.60;13.43;;;;;;;3.19;100.00;100485.47;5024486;28;20025;-73
2024/03/25 06:43:12;;;;;;;79.90;33.78;;;;;;;3.34;100.00;100488.63;5023961;28;20041;-73
2024/03/25 06:45:38;;;;;;;112.70;52.22;;;;;;;3.48;100.00;100491.78;5026117;28;20028;-73
2024/03/25 06:48:04;;;;;;;63.25;26.67;;;;;;;3.75;100.00;100485.44;5019096;28;20034;-72
2024/03/25 06:50:29;;;;;;;77.20;35.05;;;;;;;4.14;100.00;100490.13;5053594;28;20029;-73
2024/03/25 06:52:55;;;;;;;62.13;27.67;;;;;;;4.69;100.00;100488.28;5025402;28;20040;-73
2024/03/25 06:55:22;;;;;;;34.53;17.05;;;;;;;5.47;100.00;100480.94;5024019;28;20041;-74
2024/03/25 06:57:48;;;;;;;34.50;13.57;;;;;;;6.31;100.00;100485.72;5025696;28;20038;-73
2024/03/25 07:00:14;;;;;;;22.48;8.93;;;;;;;7.14;100.00;100485.97;5022883;28;20047;-73
2024/03/25 07:02:40;;;;;;;20.67;7.70;;;;;;;7.93;99.44;100481.22;5025840;28;20045;-73
2024/03/25 07:05:07;;;;;;;21.13;6.28;;;;;;;8.35;91.71;100480.63;5025709;28;20587;-73
2024/03/25 07:07:33;;;;;;;16.67;5.97;;;;;;;9.00;87.39;100479.50;5021400;28;20034;-73
2024/03/25 07:09:59;;;;;;;16.38;5.60;;;;;;;9.47;82.99;100481.66;5020176;28;20026;-73
2024/03/25 07:12:25;;;;;;;14.80;5.10;;;;;;;9.91;78.54;100478.88;5022234;28;20072;-73
2024/03/25 07:14:50;;;;;;;13.68;5.13;;;;;;;10.34;77.20;100471.81;5022647;28;20411;-73
2024/03/25 07:17:15;;;;;;;14.50;5.63;;;;;;;10.44;72.51;100469.84;5024563;28;20052;-73
2024/03/25 07:19:41;;;;;;;14.55;5.57;;;;;;;10.88;70.95;100473.84;5026835;28;20042;-73
2024/03/25 07:22:06;;;;;;;13.13;4.90;;;;;;;11.17;68.56;100472.47;5022786;28;20038;-73
2024/03/25 07:24:32;;;;;;;13.75;4.50;;;;;;;11.23;67.76;100464.03;5050402;28;20042;-72
2024/03/25 07:26:57;;;;;;;13.52;4.53;;;;;;;11.49;66.80;100474.13;5026072;28;20033;-73
2024/03/25 07:29:23;;;;;;;17.50;5.80;;;;;;;11.54;66.64;100471.81;5023128;28;20064;-72
2024/03/25 07:31:49;;;;;;;15.57;6.78;;;;;;;11.73;67.86;100459.38;5022914;28;20042;-72
2024/03/25 07:34:14;;;;;;;13.98;5.93;;;;;;;12.12;65.90;100461.91;5024018;28;20041;-73
2024/03/25 07:36:40;;;;;;;17.05;5.05;;;;;;;12.07;64.28;100459.03;5025171;28;20602;-73
2024/03/25 07:39:14;;;;;;;12.43;4.78;;;;;;;12.05;64.85;100463.59;5027028;28;20048;-73
2024/03/25 07:41:40;;;;;;;19.55;4.80;;;;;;;12.18;63.12;100463.81;5024347;28;20038;-73
2024/03/25 07:44:05;;;;;;;13.07;5.05;;;;;;;12.29;64.45;100464.41;5024484;28;20042;-73
2024/03/25 07:46:31;;;;;;;16.48;5.95;;;;;;;12.30;63.79;100461.63;5024803;28;20041;-73
2024/03/25 07:48:57;;;;;;;18.55;8.20;;;;;;;12.41;64.39;100458.59;5025953;28;20475;-73
2024/03/25 07:51:23;;;;;;;20.45;6.93;;;;;;;12.08;62.99;100468.44;5025339;28;20037;-73
2024/03/25 07:53:48;;;;;;;15.85;6.88;;;;;;;12.32;63.73;100470.06;5024456;28;20415;-73
2024/03/25 07:56:15;;;;;;;16.75;6.70;;;;;;;12.48;61.93;100468.28;5023570;28;20079;-73
2024/03/25 07:58:40;;;;;;;22.08;6.68;;;;;;;12.62;63.40;100475.28;5054264;28;20041;-72
2024/03/25 08:01:06;;;;;;;20.98;7.72;;;;;;;12.38;62.95;100463.34;5031208;28;20037;-73
2024/03/25 08:03:31;;;;;;;24.85;7.55;;;;;;;12.57;63.24;100462.03;5031833;28;20033;-73
2024/03/25 08:05:57;;;;;;;18.05;7.25;;;;;;;12.83;62.21;100459.00;5029396;28;20028;-73
2024/03/25 08:08:22;;;;;;;18.83;7.68;;;;;;;12.78;64.11;100462.13;5056211;28;20503;-73
2024/03/25 08:10:47;;;;;;;21.95;7.75;;;;;;;12.98;62.73;100461.63;5030195;28;20546;-73
2024/03/25 08:13:13;;;;;;;19.42;8.05;;;;;;;12.77;61.92;100457.09;5027371;28;20406;-73
2024/03/25 08:15:38;;;;;;;27.73;7.90;;;;;;;12.59;61.44;100463.47;5027247;28;20033;-73
2024/03/25 08:18:04;;;;;;;22.45;7.32;;;;;;;12.26;62.04;100463.75;5033683;28;20087;-73
2024/03/25 08:20:29;;;;;;;28.35;8.45;;;;;;;11.90;65.32;100468.72;5031153;28;20037;-73
2024/03/25 08:22:55;;;;;;;31.35;9.23;;;;;;;11.95;65.69;100471.63;5027643;28;20044;-73
2024/03/25 08:25:21;;;;;;;23.77;8.93;;;;;;;12.00;64.27;100458.91;5030234;28;20041;-74
2024/03/25 08:27:46;;;;;;;27.30;9.90;;;;;;;11.78;63.63;100467.47;5029359;28;20037;-74
2024/03/25 08:30:12;;;;;;;30.88;10.32;;;;;;;12.04;65.58;100465.38;5028364;28;20545;-73
2024/03/25 08:32:37;;;;;;;25.35;10.75;;;;;;;11.97;65.23;100459.25;5026602;28;20470;-73
2024/03/25 08:35:03;;;;;;;28.35;12.00;;;;;;;12.13;65.38;100465.31;5029508;28;20029;-73
2024/03/25 08:37:28;;;;;;;37.22;12.48;;;;;;;12.28;64.92;100460.97;5029771;28;20045;-73
2024/03/25 08:39:54;;;;;;;33.30;12.48;;;;;;;12.12;65.69;100461.13;5028852;28;20029;-73
2024/03/25 08:42:21;;;;;;;31.15;12.05;;;;;;;12.04;65.12;100459.38;4995273;28;20500;-73
2024/03/25 08:44:46;;;;;;;33.70;11.13;;;;;;;12.12;66.43;100461.91;5007259;28;20030;-73
2024/03/25 08:47:12;;;;;;;34.35;12.77;;;;;;;12.03;64.47;100460.34;5026491;28;20049;-74
2024/03/25 08:49:37;;;;;;;41.00;13.30;;;;;;;12.02;64.80;100458.75;5008018;28;20030;-74
2024/03/25 08:52:03;;;;;;;39.15;12.55;;;;;;;11.98;63.85;100457.47;5005704;28;20530;-74
2024/03/25 08:54:28;;;;;;;30.88;11.70;;;;;;;12.11;65.81;100462.91;5009000;28;20116;-73
2024/03/25 08:56:54;;;;;;;28.92;9.82;;;;;;;12.36;64.62;100462.72;5008853;28;20030;-73
2024/03/25 08:59:19;;;;;;;34.60;10.88;;;;;;;11.85;64.73;100463.22;5030198;28;20033;-74
2024/03/25 09:01:45;;;;;;;36.17;11.20;;;;;;;11.23;68.95;100458.81;5013792;28;20034;-74
2024/03/25 09:04:10;;;;;;;31.65;10.93;;;;;;;11.67;68.89;100464.28;5008488;28;20045;-74
2024/03/25 09:06:37;;;;;;;29.77;11.93;;;;;;;11.86;69.15;100470.00;5025435;28;20034;-74
2024/03/25 09:11:47;;;;;;;32.22;9.40;;;;;;;12.78;64.92;100456.13;5009022;28;20099;-74
2024/03/25 09:14:12;;;;;;;30.80;9.00;;;;;;;13.10;62.26;100456.75;4991606;28;20481;-73
2024/03/25 09:16:38;;;;;;;27.20;8.80;;;;;;;12.95;63.39;100451.56;5006366;28;20038;-74
2024/03/25 09:19:03;;;;;;;26.25;7.50;;;;;;;12.54;62.96;100446.78;5007576;28;20060;-74
2024/03/25 09:21:30;;;;;;;28.88;9.32;;;;;;;12.59;59.54;100447.06;5035351;28;20654;-74
2024/03/25 09:23:57;;;;;;;29.58;8.27;;;;;;;12.31;60.91;100446.81;5008410;28;20026;-74
2024/03/25 09:26:23;;;;;;;25.23;8.45;;;;;;;11.49;62.86;100454.16;5005694;28;20060;-74
2024/03/25 09:28:49;;;;;;;25.75;7.70;;;;;;;11.27;65.51;100445.34;5004639;28;20930;-74
2024/03/25 09:31:14;;;;;;;21.45;8.15;;;;;;;11.73;65.10;100451.59;5008061;28;20042;-74
2024/03/25 09:33:40;;;;;;;23.40;8.77;;;;;;;11.35;66.18;100446.28;5025365;28;20038;-74
2024/03/25 09:36:05;;;;;;;23.20;7.93;;;;;;;11.57;65.61;100440.31;5007435;28;20042;-74
2024/03/25 09:38:31;;;;;;;29.25;8.88;;;;;;;11.71;62.81;100448.34;5027689;28;20099;-74
2024/03/25 09:40:57;;;;;;;23.90;9.40;;;;;;;11.44;66.04;100438.28;5008992;28;20038;-74
2024/03/25 09:43:33;;;;;;;25.40;10.20;;;;;;;11.59;66.79;100437.56;5008608;28;20076;-74
2024/03/25 09:45:59;;;;;;;23.13;8.38;;;;;;;11.35;68.18;100435.91;5005975;28;20049;-74
2024/03/25 09:48:25;;;;;;;21.08;8.55;;;;;;;11.04;67.11;100429.69;5023596;28;20044;-74
2024/03/25 09:50:52;;;;;;;22.67;8.02;;;;;;;10.81;66.52;100431.38;5024404;28;20558;-74
2024/03/25 09:53:18;;;;;;;22.88;7.50;;;;;;;10.94;66.30;100436.06;5008184;28;20057;-74
2024/03/25 09:55:47;;;;;;;21.05;8.15;;;;;;;11.27;65.84;100428.97;5009088;28;20114;-74
2024/03/25 09:58:14;;;;;;;23.85;8.70;;;;;;;11.81;62.95;100418.59;5026812;28;20022;-74
2024/03/25 10:00:39;;;;;;;17.95;8.90;;;;;;;12.14;61.43;100414.97;5007692;28;20099;-74
2024/03/25 10:03:06;;;;;;;24.15;9.23;;;;;;;11.93;61.70;100413.81;5009974;28;20026;-74
2024/03/25 10:05:32;;;;;;;24.13;8.63;;;;;;;11.97;64.08;100402.09;5004708;28;20049;-75
2024/03/25 10:07:58;;;;;;;17.73;8.02;;;;;;;11.68;61.53;100397.59;5021555;28;20036;-75
2024/03/25 10:10:23;;;;;;;22.48;8.45;;;;;;;11.19;64.37;100408.22;5008514;28;20035;-74
2024/03/25 10:12:49;;;;;;;25.40;7.68;;;;;;;11.04;64.89;100395.16;5011652;28;20085;-74
2024/03/25 10:15:17;;;;;;;20.85;7.13;;;;;;;11.25;63.09;100399.78;5031292;28;20026;-74
2024/03/25 10:17:44;;;;;;;21.55;7.18;;;;;;;11.03;63.64;100401.31;5007596;28;20095;-74
2024/03/25 10:20:18;;;;;;;25.25;7.88;;;;;;;10.74;65.68;100389.75;5010979;28;20416;-74
2024/03/25 10:22:48;;;;;;;25.08;8.48;;;;;;;10.80;65.12;100388.28;5023975;28;20512;-74
2024/03/25 10:25:31;;;;;;;20.70;7.55;;;;;;;10.95;60.82;100386.59;5004468;28;20129;-74
2024/03/25 10:27:58;;;;;;;22.20;9.00;;;;;;;11.01;64.17;100379.94;5028869;28;20054;-74
2024/03/25 10:30:24;;;;;;;17.63;6.93;;;;;;;11.15;64.35;100379.22;5005635;28;20080;-74
2024/03/25 10:33:00;;;;;;;21.27;6.63;;;;;;;11.38;61.29;100373.28;5008048;28;20057;-74
2024/03/25 10:35:27;;;;;;;18.23;7.03;;;;;;;11.76;60.34;100368.94;5025661;28;20132;-74
2024/03/25 10:38:01;;;;;;;19.67;7.40;;;;;;;11.68;62.02;100362.03;4992584;28;20120;-74
2024/03/25 10:40:34;;;;;;;21.55;6.57;;;;;;;11.96;63.42;100348.53;5008954;28;20074;-74
2024/03/25 10:43:06;;;;;;;15.02;6.38;;;;;;;11.88;58.64;100345.94;5020024;28;20037;-74
2024/03/25 10:45:35;;;;;;;17.70;5.65;;;;;;;11.42;55.00;100348.56;5026559;28;20049;-74
2024/03/25 10:48:13;;;;;;;15.60;4.55;;;;;;;11.36;56.15;100351.84;5022421;28;20029;-74
2024/03/25 10:50:40;;;;;;;13.00;5.63;;;;;;;11.30;57.05;100346.38;5021075;28;20053;-75
2024/03/25 10:53:08;;;;;;;20.30;6.10;;;;;;;11.10;57.42;100350.38;5006513;28;20030;-74
2024/03/25 10:55:36;;;;;;;17.45;6.03;;;;;;;11.11;58.03;100351.97;5006689;28;20061;-74
2024/03/25 10:58:02;;;;;;;14.68;5.25;;;;;;;11.16;60.49;100349.69;5005648;28;20054;-73
2024/03/25 11:00:28;;;;;;;10.65;4.80;;;;;;;11.35;57.89;100345.03;5003203;28;20022;-74
2024/03/25 11:02:54;;;;;;;15.90;5.72;;;;;;;11.34;58.69;100336.47;5021653;28;20472;-74
2024/03/25 11:05:20;;;;;;;16.77;6.13;;;;;;;11.57;61.01;100333.84;5005000;28;20057;-74
2024/03/25 11:07:46;;;;;;;13.93;5.70;;;;;;;11.69;58.55;100324.66;5018974;28;20033;-75
2024/03/25 11:10:12;;;;;;;15.98;6.95;;;;;;;11.46;60.46;100324.69;5002162;28;20034;-73
2024/03/25 11:12:41;;;;;;;14.77;6.38;;;;;;;11.62;58.76;100321.16;5024027;28;20041;-74
2024/03/25 11:15:07;;;;;;;13.80;5.88;;;;;;;11.60;57.02;100317.94;5018646;28;20040;-74
2024/03/25 11:17:33;;;;;;;16.75;5.93;;;;;;;11.50;58.76;100317.34;5021003;28;20065;-74
2024/03/25 11:20:08;;;;;;;20.52;6.85;;;;;;;11.56;58.42;100313.25;5010011;28;20026;-74